sensor_id;sensor_type;location;lat;lon;timestamp;P1;durP1;ratioP1;P2;durP2;ratioP2
35795;SDS011;21916;52.428;13.302;2023-03-13T00:03:53;19.83;;;10.60;;
35795;SDS011;21916;52.428;13.302;2023-03-13T00:06:20;21.48;;;9.98;;
35795;SDS011;21916;52.428;13.302;2023-03-13T00:08:47;17.27;;;9.60;;
35795;SDS011;21916;52.428;13.302;2023-03-13T00:11:14;23.77;;;11.70;;
35795;SDS011;21916;52.428;13.302;2023-03-13T00:13:40;24.02;;;10.02;;
35795;SDS011;21916;52.428;13.302;2023-03-13T00:16:07;25.67;;;10.20;;
35795;SDS011;21916;52.428;13.302;2023-03-13T00:18:35;22.27;;;10.65;;
35795;SDS011;21916;52.428;13.302;2023-03-13T00:21:05;22.25;;;10.35;;
35795;SDS011;21916;52.428;13.302;2023-03-13T00:23:33;20.27;;;10.68;;
35795;SDS011;21916;52.428;13.302;2023-03-13T00:26:04;24.50;;;9.98;;
35795;SDS011;21916;52.428;13.302;2023-03-13T00:28:32;26.80;;;10.45;;
35795;SDS011;21916;52.428;13.302;2023-03-13T00:31:06;28.80;;;10.73;;
35795;SDS011;21916;52.428;13.302;2023-03-13T00:33:34;23.30;;;10.38;;
35795;SDS011;21916;52.428;13.302;2023-03-13T00:36:15;19.10;;;10.90;;
35795;SDS011;21916;52.428;13.302;2023-03-13T00:38:52;23.40;;;10.63;;
35795;SDS011;21916;52.428;13.302;2023-03-13T00:41:20;23.00;;;10.27;;
35795;SDS011;21916;52.428;13.302;2023-03-13T00:43:51;24.90;;;12.40;;
35795;SDS011;21916;52.428;13.302;2023-03-13T00:46:19;22.80;;;11.52;;
35795;SDS011;21916;52.428;13.302;2023-03-13T00:48:46;29.13;;;11.68;;
35795;SDS011;21916;52.428;13.302;2023-03-13T00:51:14;23.75;;;10.85;;
35795;SDS011;21916;52.428;13.302;2023-03-13T00:53:42;19.65;;;11.25;;
35795;SDS011;21916;52.428;13.302;2023-03-13T00:56:10;23.60;;;11.13;;
35795;SDS011;21916;52.428;13.302;2023-03-13T00:58:41;23.77;;;10.75;;
35795;SDS011;21916;52.428;13.302;2023-03-13T01:01:12;27.02;;;11.27;;
35795;SDS011;21916;52.428;13.302;2023-03-13T01:03:44;24.25;;;10.43;;
35795;SDS011;21916;52.428;13.302;2023-03-13T01:06:14;18.60;;;10.18;;
35795;SDS011;21916;52.428;13.302;2023-03-13T01:08:42;24.45;;;11.05;;
35795;SDS011;21916;52.428;13.302;2023-03-13T01:11:12;21.77;;;10.40;;
35795;SDS011;21916;52.428;13.302;2023-03-13T01:13:40;31.15;;;11.98;;
35795;SDS011;21916;52.428;13.302;2023-03-13T01:16:08;22.13;;;10.43;;
35795;SDS011;21916;52.428;13.302;2023-03-13T01:18:36;24.65;;;10.38;;
35795;SDS011;21916;52.428;13.302;2023-03-13T01:21:04;23.17;;;11.45;;
35795;SDS011;21916;52.428;13.302;2023-03-13T01:23:31;26.20;;;10.60;;
35795;SDS011;21916;52.428;13.302;2023-03-13T01:25:57;20.27;;;10.02;;
35795;SDS011;21916;52.428;13.302;2023-03-13T01:28:23;29.17;;;16.45;;
35795;SDS011;21916;52.428;13.302;2023-03-13T01:30:50;27.65;;;11.38;;
35795;SDS011;21916;52.428;13.302;2023-03-13T01:33:16;25.25;;;10.70;;
35795;SDS011;21916;52.428;13.302;2023-03-13T01:35:43;22.17;;;11.32;;
35795;SDS011;21916;52.428;13.302;2023-03-13T01:38:09;25.80;;;10.23;;
35795;SDS011;21916;52.428;13.302;2023-03-13T01:40:48;22.98;;;9.13;;
35795;SDS011;21916;52.428;13.302;2023-03-13T01:43:24;20.25;;;9.80;;
35795;SDS011;21916;52.428;13.302;2023-03-13T01:45:56;24.85;;;12.18;;
35795;SDS011;21916;52.428;13.302;2023-03-13T01:48:43;18.27;;;9.05;;
35795;SDS011;21916;52.428;13.302;2023-03-13T01:54:01;15.20;;;8.60;;
35795;SDS011;21916;52.428;13.302;2023-03-13T01:56:36;19.80;;;9.68;;
35795;SDS011;21916;52.428;13.302;2023-03-13T01:59:10;15.63;;;8.85;;
35795;SDS011;21916;52.428;13.302;2023-03-13T02:01:41;16.48;;;8.18;;
35795;SDS011;21916;52.428;13.302;2023-03-13T02:04:10;20.33;;;7.55;;
35795;SDS011;21916;52.428;13.302;2023-03-13T02:06:38;22.23;;;9.52;;
35795;SDS011;21916;52.428;13.302;2023-03-13T02:09:11;22.20;;;7.85;;
35795;SDS011;21916;52.428;13.302;2023-03-13T02:11:46;21.33;;;8.38;;
35795;SDS011;21916;52.428;13.302;2023-03-13T02:14:32;16.58;;;7.55;;
35795;SDS011;21916;52.428;13.302;2023-03-13T02:17:02;16.30;;;7.63;;
35795;SDS011;21916;52.428;13.302;2023-03-13T02:22:15;16.30;;;7.47;;
35795;SDS011;21916;52.428;13.302;2023-03-13T02:27:31;22.83;;;8.93;;
35795;SDS011;21916;52.428;13.302;2023-03-13T02:29:58;16.73;;;7.20;;
35795;SDS011;21916;52.428;13.302;2023-03-13T02:32:24;18.30;;;6.22;;
35795;SDS011;21916;52.428;13.302;2023-03-13T02:34:53;17.90;;;6.90;;
35795;SDS011;21916;52.428;13.302;2023-03-13T02:37:23;13.40;;;6.38;;
35795;SDS011;21916;52.428;13.302;2023-03-13T02:39:52;18.38;;;7.93;;
35795;SDS011;21916;52.428;13.302;2023-03-13T02:42:20;15.93;;;6.03;;
35795;SDS011;21916;52.428;13.302;2023-03-13T02:44:46;23.83;;;5.75;;
35795;SDS011;21916;52.428;13.302;2023-03-13T02:47:24;16.15;;;6.32;;
35795;SDS011;21916;52.428;13.302;2023-03-13T02:49:52;18.27;;;6.38;;
35795;SDS011;21916;52.428;13.302;2023-03-13T02:52:20;19.55;;;5.90;;
35795;SDS011;21916;52.428;13.302;2023-03-13T02:54:50;14.82;;;5.75;;
35795;SDS011;21916;52.428;13.302;2023-03-13T02:57:21;21.33;;;6.22;;
35795;SDS011;21916;52.428;13.302;2023-03-13T02:59:47;15.13;;;6.18;;
35795;SDS011;21916;52.428;13.302;2023-03-13T03:02:13;15.05;;;5.38;;
35795;SDS011;21916;52.428;13.302;2023-03-13T03:04:39;21.27;;;6.47;;
35795;SDS011;21916;52.428;13.302;2023-03-13T03:07:06;16.38;;;5.93;;
35795;SDS011;21916;52.428;13.302;2023-03-13T03:09:35;21.02;;;8.43;;
35795;SDS011;21916;52.428;13.302;2023-03-13T03:12:06;14.60;;;5.40;;
35795;SDS011;21916;52.428;13.302;2023-03-13T03:14:33;18.85;;;5.65;;
35795;SDS011;21916;52.428;13.302;2023-03-13T03:16:59;18.88;;;5.95;;
35795;SDS011;21916;52.428;13.302;2023-03-13T03:19:26;22.45;;;7.35;;
35795;SDS011;21916;52.428;13.302;2023-03-13T03:21:51;14.40;;;5.18;;
35795;SDS011;21916;52.428;13.302;2023-03-13T03:24:18;14.60;;;5.30;;
35795;SDS011;21916;52.428;13.302;2023-03-13T03:26:44;21.60;;;6.65;;
35795;SDS011;21916;52.428;13.302;2023-03-13T03:29:19;17.02;;;4.78;;
35795;SDS011;21916;52.428;13.302;2023-03-13T03:31:49;21.27;;;5.25;;
35795;SDS011;21916;52.428;13.302;2023-03-13T03:34:15;14.48;;;4.93;;
35795;SDS011;21916;52.428;13.302;2023-03-13T03:36:41;20.40;;;5.63;;
35795;SDS011;21916;52.428;13.302;2023-03-13T03:39:07;14.20;;;4.93;;
35795;SDS011;21916;52.428;13.302;2023-03-13T03:41:34;19.58;;;5.45;;
35795;SDS011;21916;52.428;13.302;2023-03-13T03:44:02;16.77;;;5.63;;
35795;SDS011;21916;52.428;13.302;2023-03-13T03:46:39;17.90;;;5.13;;
35795;SDS011;21916;52.428;13.302;2023-03-13T03:49:05;15.02;;;4.53;;
35795;SDS011;21916;52.428;13.302;2023-03-13T03:51:31;16.55;;;4.53;;
35795;SDS011;21916;52.428;13.302;2023-03-13T03:53:57;21.50;;;5.30;;
35795;SDS011;21916;52.428;13.302;2023-03-13T03:56:23;23.90;;;6.38;;
35795;SDS011;21916;52.428;13.302;2023-03-13T03:58:53;17.13;;;5.15;;
35795;SDS011;21916;52.428;13.302;2023-03-13T04:01:40;15.35;;;4.78;;
35795;SDS011;21916;52.428;13.302;2023-03-13T04:04:06;16.38;;;4.45;;
35795;SDS011;21916;52.428;13.302;2023-03-13T04:06:32;16.90;;;5.40;;
35795;SDS011;21916;52.428;13.302;2023-03-13T04:08:58;13.05;;;4.75;;
35795;SDS011;21916;52.428;13.302;2023-03-13T04:11:29;19.17;;;4.70;;
35795;SDS011;21916;52.428;13.302;2023-03-13T04:13:55;19.05;;;5.25;;
35795;SDS011;21916;52.428;13.302;2023-03-13T04:16:23;18.45;;;4.78;;
35795;SDS011;21916;52.428;13.302;2023-03-13T04:18:49;20.70;;;4.55;;
35795;SDS011;21916;52.428;13.302;2023-03-13T04:21:16;15.68;;;4.50;;
35795;SDS011;21916;52.428;13.302;2023-03-13T04:23:47;15.43;;;4.80;;
35795;SDS011;21916;52.428;13.302;2023-03-13T04:26:14;16.67;;;4.65;;
35795;SDS011;21916;52.428;13.302;2023-03-13T04:28:40;15.63;;;4.88;;
35795;SDS011;21916;52.428;13.302;2023-03-13T04:31:08;17.15;;;5.28;;
35795;SDS011;21916;52.428;13.302;2023-03-13T04:33:54;12.95;;;3.88;;
35795;SDS011;21916;52.428;13.302;2023-03-13T04:36:44;17.67;;;5.47;;
35795;SDS011;21916;52.428;13.302;2023-03-13T04:39:32;21.17;;;5.80;;
35795;SDS011;21916;52.428;13.302;2023-03-13T04:42:16;19.23;;;4.97;;
35795;SDS011;21916;52.428;13.302;2023-03-13T04:44:45;18.67;;;5.70;;
35795;SDS011;21916;52.428;13.302;2023-03-13T04:47:38;20.83;;;5.57;;
35795;SDS011;21916;52.428;13.302;2023-03-13T04:50:17;24.38;;;5.20;;
35795;SDS011;21916;52.428;13.302;2023-03-13T04:52:57;20.15;;;4.85;;
35795;SDS011;21916;52.428;13.302;2023-03-13T04:55:32;27.75;;;5.47;;
35795;SDS011;21916;52.428;13.302;2023-03-13T04:58:17;22.98;;;5.43;;
35795;SDS011;21916;52.428;13.302;2023-03-13T05:00:52;18.02;;;4.90;;
35795;SDS011;21916;52.428;13.302;2023-03-13T05:03:47;15.27;;;4.43;;
35795;SDS011;21916;52.428;13.302;2023-03-13T05:06:33;22.63;;;6.22;;
35795;SDS011;21916;52.428;13.302;2023-03-13T05:09:13;27.30;;;6.07;;
35795;SDS011;21916;52.428;13.302;2023-03-13T05:11:58;21.70;;;4.22;;
35795;SDS011;21916;52.428;13.302;2023-03-13T05:14:43;19.65;;;4.88;;
35795;SDS011;21916;52.428;13.302;2023-03-13T05:17:29;20.75;;;4.53;;
35795;SDS011;21916;52.428;13.302;2023-03-13T05:20:24;17.13;;;4.75;;
35795;SDS011;21916;52.428;13.302;2023-03-13T05:23:12;18.23;;;4.28;;
35795;SDS011;21916;52.428;13.302;2023-03-13T05:25:41;15.60;;;3.83;;
35795;SDS011;21916;52.428;13.302;2023-03-13T05:28:25;24.02;;;5.47;;
35795;SDS011;21916;52.428;13.302;2023-03-13T05:31:15;21.92;;;6.15;;
35795;SDS011;21916;52.428;13.302;2023-03-13T05:33:57;24.98;;;5.47;;
35795;SDS011;21916;52.428;13.302;2023-03-13T05:36:23;26.13;;;5.25;;
35795;SDS011;21916;52.428;13.302;2023-03-13T05:39:09;20.42;;;4.38;;
35795;SDS011;21916;52.428;13.302;2023-03-13T05:41:56;25.13;;;5.57;;
35795;SDS011;21916;52.428;13.302;2023-03-13T05:44:35;22.30;;;5.68;;
35795;SDS011;21916;52.428;13.302;2023-03-13T05:47:19;23.42;;;4.72;;
35795;SDS011;21916;52.428;13.302;2023-03-13T05:49:53;23.95;;;5.60;;
35795;SDS011;21916;52.428;13.302;2023-03-13T05:52:35;23.73;;;5.30;;
35795;SDS011;21916;52.428;13.302;2023-03-13T05:55:33;25.80;;;4.78;;
35795;SDS011;21916;52.428;13.302;2023-03-13T05:58:13;20.30;;;5.60;;
35795;SDS011;21916;52.428;13.302;2023-03-13T06:00:49;19.52;;;4.85;;
35795;SDS011;21916;52.428;13.302;2023-03-13T06:03:28;23.33;;;5.45;;
35795;SDS011;21916;52.428;13.302;2023-03-13T06:05:56;33.88;;;6.40;;
35795;SDS011;21916;52.428;13.302;2023-03-13T06:08:43;23.60;;;4.90;;
35795;SDS011;21916;52.428;13.302;2023-03-13T06:11:09;27.67;;;5.53;;
35795;SDS011;21916;52.428;13.302;2023-03-13T06:13:36;24.02;;;5.50;;
35795;SDS011;21916;52.428;13.302;2023-03-13T06:16:15;21.60;;;5.72;;
35795;SDS011;21916;52.428;13.302;2023-03-13T06:18:46;28.25;;;5.30;;
35795;SDS011;21916;52.428;13.302;2023-03-13T06:21:12;23.63;;;5.20;;
35795;SDS011;21916;52.428;13.302;2023-03-13T06:23:38;22.02;;;5.85;;
35795;SDS011;21916;52.428;13.302;2023-03-13T06:26:04;21.15;;;5.38;;
35795;SDS011;21916;52.428;13.302;2023-03-13T06:28:31;21.50;;;5.40;;
35795;SDS011;21916;52.428;13.302;2023-03-13T06:31:00;20.17;;;5.40;;
35795;SDS011;21916;52.428;13.302;2023-03-13T06:33:27;20.63;;;5.28;;
35795;SDS011;21916;52.428;13.302;2023-03-13T06:35:53;23.35;;;5.60;;
35795;SDS011;21916;52.428;13.302;2023-03-13T06:38:19;30.02;;;7.05;;
35795;SDS011;21916;52.428;13.302;2023-03-13T06:40:45;26.30;;;6.07;;
35795;SDS011;21916;52.428;13.302;2023-03-13T06:43:10;24.10;;;5.20;;
35795;SDS011;21916;52.428;13.302;2023-03-13T06:45:36;23.95;;;5.30;;
35795;SDS011;21916;52.428;13.302;2023-03-13T06:48:02;33.53;;;5.47;;
35795;SDS011;21916;52.428;13.302;2023-03-13T06:50:29;26.02;;;6.35;;
35795;SDS011;21916;52.428;13.302;2023-03-13T06:52:55;34.47;;;6.00;;
35795;SDS011;21916;52.428;13.302;2023-03-13T06:55:22;26.73;;;5.70;;
35795;SDS011;21916;52.428;13.302;2023-03-13T06:57:49;19.50;;;6.70;;
35795;SDS011;21916;52.428;13.302;2023-03-13T07:00:16;31.08;;;6.70;;
35795;SDS011;21916;52.428;13.302;2023-03-13T07:02:42;29.15;;;7.28;;
35795;SDS011;21916;52.428;13.302;2023-03-13T07:05:08;24.20;;;5.40;;
35795;SDS011;21916;52.428;13.302;2023-03-13T07:07:34;19.58;;;5.38;;
35795;SDS011;21916;52.428;13.302;2023-03-13T07:10:00;24.33;;;6.00;;
35795;SDS011;21916;52.428;13.302;2023-03-13T07:12:26;27.83;;;7.55;;
35795;SDS011;21916;52.428;13.302;2023-03-13T07:14:52;22.98;;;5.32;;
35795;SDS011;21916;52.428;13.302;2023-03-13T07:17:18;26.70;;;5.70;;
35795;SDS011;21916;52.428;13.302;2023-03-13T07:19:44;26.55;;;6.47;;
35795;SDS011;21916;52.428;13.302;2023-03-13T07:22:10;25.88;;;5.40;;
35795;SDS011;21916;52.428;13.302;2023-03-13T07:24:36;26.55;;;5.80;;
35795;SDS011;21916;52.428;13.302;2023-03-13T07:27:01;29.20;;;5.72;;
35795;SDS011;21916;52.428;13.302;2023-03-13T07:29:27;23.38;;;5.78;;
35795;SDS011;21916;52.428;13.302;2023-03-13T07:31:53;29.70;;;5.82;;
35795;SDS011;21916;52.428;13.302;2023-03-13T07:34:19;25.85;;;5.15;;
35795;SDS011;21916;52.428;13.302;2023-03-13T07:36:45;23.98;;;5.18;;
35795;SDS011;21916;52.428;13.302;2023-03-13T07:39:11;24.77;;;5.28;;
35795;SDS011;21916;52.428;13.302;2023-03-13T07:41:37;32.22;;;5.50;;
35795;SDS011;21916;52.428;13.302;2023-03-13T07:44:04;22.15;;;4.95;;
35795;SDS011;21916;52.428;13.302;2023-03-13T07:46:30;19.35;;;4.75;;
35795;SDS011;21916;52.428;13.302;2023-03-13T07:48:56;22.20;;;5.20;;
35795;SDS011;21916;52.428;13.302;2023-03-13T07:51:23;23.30;;;5.45;;
35795;SDS011;21916;52.428;13.302;2023-03-13T07:53:50;19.83;;;5.13;;
35795;SDS011;21916;52.428;13.302;2023-03-13T07:56:20;13.82;;;4.57;;
35795;SDS011;21916;52.428;13.302;2023-03-13T07:58:47;19.60;;;5.25;;
35795;SDS011;21916;52.428;13.302;2023-03-13T08:01:17;21.23;;;4.78;;
35795;SDS011;21916;52.428;13.302;2023-03-13T08:03:48;25.02;;;5.53;;
35795;SDS011;21916;52.428;13.302;2023-03-13T08:06:18;22.02;;;5.55;;
35795;SDS011;21916;52.428;13.302;2023-03-13T08:08:47;20.05;;;4.05;;
35795;SDS011;21916;52.428;13.302;2023-03-13T08:11:15;25.55;;;5.32;;
35795;SDS011;21916;52.428;13.302;2023-03-13T08:13:45;21.25;;;3.85;;
35795;SDS011;21916;52.428;13.302;2023-03-13T08:16:13;18.83;;;6.07;;
35795;SDS011;21916;52.428;13.302;2023-03-13T08:18:41;28.63;;;7.45;;
35795;SDS011;21916;52.428;13.302;2023-03-13T08:21:13;18.50;;;6.95;;
35795;SDS011;21916;52.428;13.302;2023-03-13T08:23:40;15.63;;;4.30;;
35795;SDS011;21916;52.428;13.302;2023-03-13T08:28:33;19.70;;;4.70;;
35795;SDS011;21916;52.428;13.302;2023-03-13T08:31:10;22.67;;;4.45;;
35795;SDS011;21916;52.428;13.302;2023-03-13T08:33:50;27.17;;;5.28;;
35795;SDS011;21916;52.428;13.302;2023-03-13T08:36:24;15.77;;;4.03;;
35795;SDS011;21916;52.428;13.302;2023-03-13T08:38:52;20.20;;;4.47;;
35795;SDS011;21916;52.428;13.302;2023-03-13T08:41:21;19.05;;;5.95;;
35795;SDS011;21916;52.428;13.302;2023-03-13T08:43:48;13.73;;;3.90;;
35795;SDS011;21916;52.428;13.302;2023-03-13T08:46:15;14.63;;;4.43;;
35795;SDS011;21916;52.428;13.302;2023-03-13T08:48:47;20.75;;;4.75;;
35795;SDS011;21916;52.428;13.302;2023-03-13T08:51:17;17.98;;;4.43;;
35795;SDS011;21916;52.428;13.302;2023-03-13T08:53:44;17.85;;;3.92;;
35795;SDS011;21916;52.428;13.302;2023-03-13T08:56:11;20.42;;;4.70;;
35795;SDS011;21916;52.428;13.302;2023-03-13T08:58:38;13.00;;;4.22;;
35795;SDS011;21916;52.428;13.302;2023-03-13T09:01:05;17.00;;;4.40;;
35795;SDS011;21916;52.428;13.302;2023-03-13T09:03:33;15.63;;;3.63;;
35795;SDS011;21916;52.428;13.302;2023-03-13T09:05:59;17.63;;;4.35;;
35795;SDS011;21916;52.428;13.302;2023-03-13T09:08:28;20.00;;;4.13;;
35795;SDS011;21916;52.428;13.302;2023-03-13T09:10:55;15.88;;;4.35;;
35795;SDS011;21916;52.428;13.302;2023-03-13T09:13:21;19.25;;;4.47;;
35795;SDS011;21916;52.428;13.302;2023-03-13T09:15:58;17.73;;;5.43;;
35795;SDS011;21916;52.428;13.302;2023-03-13T09:18:24;18.67;;;5.53;;
35795;SDS011;21916;52.428;13.302;2023-03-13T09:20:51;18.67;;;4.93;;
35795;SDS011;21916;52.428;13.302;2023-03-13T09:23:17;12.25;;;3.53;;
35795;SDS011;21916;52.428;13.302;2023-03-13T09:25:44;14.60;;;4.70;;
35795;SDS011;21916;52.428;13.302;2023-03-13T09:28:11;20.42;;;4.28;;
35795;SDS011;21916;52.428;13.302;2023-03-13T09:30:37;13.48;;;3.67;;
35795;SDS011;21916;52.428;13.302;2023-03-13T09:33:03;12.00;;;3.33;;
35795;SDS011;21916;52.428;13.302;2023-03-13T09:35:28;16.02;;;4.03;;
35795;SDS011;21916;52.428;13.302;2023-03-13T09:37:54;15.30;;;3.47;;
35795;SDS011;21916;52.428;13.302;2023-03-13T09:40:21;10.63;;;3.97;;
35795;SDS011;21916;52.428;13.302;2023-03-13T09:42:50;10.27;;;3.55;;
35795;SDS011;21916;52.428;13.302;2023-03-13T09:48:01;11.70;;;3.83;;
35795;SDS011;21916;52.428;13.302;2023-03-13T09:50:35;10.05;;;3.00;;
35795;SDS011;21916;52.428;13.302;2023-03-13T09:53:13;11.23;;;3.38;;
35795;SDS011;21916;52.428;13.302;2023-03-13T09:55:42;16.10;;;3.30;;
35795;SDS011;21916;52.428;13.302;2023-03-13T09:58:11;10.80;;;3.40;;
35795;SDS011;21916;52.428;13.302;2023-03-13T10:00:42;10.73;;;3.80;;
35795;SDS011;21916;52.428;13.302;2023-03-13T10:03:15;11.75;;;3.08;;
35795;SDS011;21916;52.428;13.302;2023-03-13T10:05:45;12.52;;;3.10;;
35795;SDS011;21916;52.428;13.302;2023-03-13T10:08:24;12.95;;;3.25;;
35795;SDS011;21916;52.428;13.302;2023-03-13T10:13:42;18.55;;;3.15;;
35795;SDS011;21916;52.428;13.302;2023-03-13T10:16:43;10.43;;;3.60;;
35795;SDS011;21916;52.428;13.302;2023-03-13T10:19:17;7.05;;;2.38;;
35795;SDS011;21916;52.428;13.302;2023-03-13T10:21:46;15.57;;;3.35;;
35795;SDS011;21916;52.428;13.302;2023-03-13T10:24:17;9.90;;;3.25;;
35795;SDS011;21916;52.428;13.302;2023-03-13T10:26:57;13.10;;;2.83;;
35795;SDS011;21916;52.428;13.302;2023-03-13T10:29:23;8.43;;;2.58;;
35795;SDS011;21916;52.428;13.302;2023-03-13T10:31:58;9.73;;;2.83;;
35795;SDS011;21916;52.428;13.302;2023-03-13T10:34:32;8.98;;;3.03;;
35795;SDS011;21916;52.428;13.302;2023-03-13T10:37:18;6.40;;;2.65;;
35795;SDS011;21916;52.428;13.302;2023-03-13T10:39:45;5.85;;;2.00;;
35795;SDS011;21916;52.428;13.302;2023-03-13T10:42:27;8.60;;;3.10;;
35795;SDS011;21916;52.428;13.302;2023-03-13T10:45:00;6.65;;;2.58;;
35795;SDS011;21916;52.428;13.302;2023-03-13T10:47:33;8.93;;;3.13;;
35795;SDS011;21916;52.428;13.302;2023-03-13T10:50:00;7.85;;;2.80;;
35795;SDS011;21916;52.428;13.302;2023-03-13T10:52:33;8.50;;;3.00;;
35795;SDS011;21916;52.428;13.302;2023-03-13T10:55:17;6.82;;;2.13;;
35795;SDS011;21916;52.428;13.302;2023-03-13T10:58:01;9.57;;;2.67;;
35795;SDS011;21916;52.428;13.302;2023-03-13T11:03:03;5.97;;;2.47;;
35795;SDS011;21916;52.428;13.302;2023-03-13T11:05:40;12.23;;;2.95;;
35795;SDS011;21916;52.428;13.302;2023-03-13T11:08:55;8.00;;;3.10;;
35795;SDS011;21916;52.428;13.302;2023-03-13T11:11:00;6.93;;;1.50;;
35795;SDS011;21916;52.428;13.302;2023-03-13T11:16:02;5.03;;;1.63;;
35795;SDS011;21916;52.428;13.302;2023-03-13T11:18:36;6.45;;;2.08;;
35795;SDS011;21916;52.428;13.302;2023-03-13T11:21:10;3.08;;;1.35;;
35795;SDS011;21916;52.428;13.302;2023-03-13T11:23:46;3.00;;;1.10;;
35795;SDS011;21916;52.428;13.302;2023-03-13T11:26:22;5.05;;;1.55;;
35795;SDS011;21916;52.428;13.302;2023-03-13T11:31:38;2.53;;;1.58;;
35795;SDS011;21916;52.428;13.302;2023-03-13T11:37:12;2.58;;;1.38;;
35795;SDS011;21916;52.428;13.302;2023-03-13T11:51:37;5.38;;;1.33;;
35795;SDS011;21916;52.428;13.302;2023-03-13T11:56:56;1.90;;;0.98;;
35795;SDS011;21916;52.428;13.302;2023-03-13T11:59:34;3.30;;;1.25;;
35795;SDS011;21916;52.428;13.302;2023-03-13T12:02:43;2.45;;;1.40;;
35795;SDS011;21916;52.428;13.302;2023-03-13T12:05:21;6.05;;;0.85;;
35795;SDS011;21916;52.428;13.302;2023-03-13T12:08:00;4.68;;;1.35;;
35795;SDS011;21916;52.428;13.302;2023-03-13T12:10:39;1.48;;;0.80;;
35795;SDS011;21916;52.428;13.302;2023-03-13T12:16:29;1.65;;;0.70;;
35795;SDS011;21916;52.428;13.302;2023-03-13T12:19:17;1.58;;;0.70;;
35795;SDS011;21916;52.428;13.302;2023-03-13T12:21:53;3.03;;;0.73;;
35795;SDS011;21916;52.428;13.302;2023-03-13T12:24:28;0.82;;;0.70;;
35795;SDS011;21916;52.428;13.302;2023-03-13T12:27:20;1.23;;;0.60;;
35795;SDS011;21916;52.428;13.302;2023-03-13T12:32:35;1.77;;;0.77;;
35795;SDS011;21916;52.428;13.302;2023-03-13T12:35:23;1.08;;;0.68;;
35795;SDS011;21916;52.428;13.302;2023-03-13T12:41:06;1.67;;;0.70;;
35795;SDS011;21916;52.428;13.302;2023-03-13T12:43:38;1.70;;;0.70;;
35795;SDS011;21916;52.428;13.302;2023-03-13T13:00:28;1.20;;;0.70;;
35795;SDS011;21916;52.428;13.302;2023-03-13T13:05:56;14.05;;;1.85;;
35795;SDS011;21916;52.428;13.302;2023-03-13T13:08:41;1.38;;;0.60;;
35795;SDS011;21916;52.428;13.302;2023-03-13T13:14:04;7.97;;;1.27;;
35795;SDS011;21916;52.428;13.302;2023-03-13T13:16:56;1.73;;;0.70;;
35795;SDS011;21916;52.428;13.302;2023-03-13T13:24:58;1.20;;;0.70;;
35795;SDS011;21916;52.428;13.302;2023-03-13T13:29:56;1.58;;;0.90;;
35795;SDS011;21916;52.428;13.302;2023-03-13T13:32:37;1.35;;;0.70;;
35795;SDS011;21916;52.428;13.302;2023-03-13T13:37:37;2.30;;;0.80;;
35795;SDS011;21916;52.428;13.302;2023-03-13T13:43:03;1.65;;;0.85;;
35795;SDS011;21916;52.428;13.302;2023-03-13T13:45:32;0.95;;;0.80;;
35795;SDS011;21916;52.428;13.302;2023-03-13T14:01:30;2.97;;;0.90;;
35795;SDS011;21916;52.428;13.302;2023-03-13T14:04:41;5.47;;;1.00;;
35795;SDS011;21916;52.428;13.302;2023-03-13T14:06:51;1.02;;;0.88;;
35795;SDS011;21916;52.428;13.302;2023-03-13T14:09:32;1.30;;;0.80;;
35795;SDS011;21916;52.428;13.302;2023-03-13T14:15:08;1.63;;;1.00;;
35795;SDS011;21916;52.428;13.302;2023-03-13T14:17:45;2.20;;;1.17;;
35795;SDS011;21916;52.428;13.302;2023-03-13T14:22:59;1.92;;;1.08;;
35795;SDS011;21916;52.428;13.302;2023-03-13T14:25:48;2.40;;;0.82;;
35795;SDS011;21916;52.428;13.302;2023-03-13T14:28:22;1.58;;;0.90;;
35795;SDS011;21916;52.428;13.302;2023-03-13T14:30:54;3.10;;;1.08;;
35795;SDS011;21916;52.428;13.302;2023-03-13T14:33:21;3.08;;;1.00;;
35795;SDS011;21916;52.428;13.302;2023-03-13T14:35:49;3.05;;;1.00;;
35795;SDS011;21916;52.428;13.302;2023-03-13T14:38:19;2.47;;;1.13;;
35795;SDS011;21916;52.428;13.302;2023-03-13T14:40:48;1.65;;;0.85;;
35795;SDS011;21916;52.428;13.302;2023-03-13T14:43:20;1.02;;;0.80;;
35795;SDS011;21916;52.428;13.302;2023-03-13T14:45:56;2.15;;;1.00;;
35795;SDS011;21916;52.428;13.302;2023-03-13T14:48:28;1.50;;;1.23;;
35795;SDS011;21916;52.428;13.302;2023-03-13T14:51:03;1.85;;;1.23;;
35795;SDS011;21916;52.428;13.302;2023-03-13T14:53:52;2.97;;;1.27;;
35795;SDS011;21916;52.428;13.302;2023-03-13T14:56:35;1.58;;;0.90;;
35795;SDS011;21916;52.428;13.302;2023-03-13T15:01:40;1.58;;;0.88;;
35795;SDS011;21916;52.428;13.302;2023-03-13T15:04:06;3.28;;;1.30;;
35795;SDS011;21916;52.428;13.302;2023-03-13T15:06:32;1.20;;;0.95;;
35795;SDS011;21916;52.428;13.302;2023-03-13T15:14:32;4.70;;;1.10;;
35795;SDS011;21916;52.428;13.302;2023-03-13T15:17:12;2.58;;;1.10;;
35795;SDS011;21916;52.428;13.302;2023-03-13T15:19:47;2.03;;;0.98;;
35795;SDS011;21916;52.428;13.302;2023-03-13T15:22:14;3.22;;;0.98;;
35795;SDS011;21916;52.428;13.302;2023-03-13T15:24:42;2.92;;;1.08;;
35795;SDS011;21916;52.428;13.302;2023-03-13T15:27:16;2.13;;;1.08;;
35795;SDS011;21916;52.428;13.302;2023-03-13T15:29:44;1.63;;;0.90;;
35795;SDS011;21916;52.428;13.302;2023-03-13T15:32:16;1.38;;;0.80;;
35795;SDS011;21916;52.428;13.302;2023-03-13T15:34:43;3.28;;;1.13;;
35795;SDS011;21916;52.428;13.302;2023-03-13T15:37:10;1.33;;;1.15;;
35795;SDS011;21916;52.428;13.302;2023-03-13T15:39:37;1.73;;;0.90;;
35795;SDS011;21916;52.428;13.302;2023-03-13T15:42:03;1.45;;;0.88;;
35795;SDS011;21916;52.428;13.302;2023-03-13T15:44:29;6.88;;;1.10;;
35795;SDS011;21916;52.428;13.302;2023-03-13T15:46:55;2.80;;;0.90;;
35795;SDS011;21916;52.428;13.302;2023-03-13T15:49:21;4.05;;;1.00;;
35795;SDS011;21916;52.428;13.302;2023-03-13T15:51:46;4.32;;;1.50;;
35795;SDS011;21916;52.428;13.302;2023-03-13T15:54:12;2.50;;;0.80;;
35795;SDS011;21916;52.428;13.302;2023-03-13T15:56:38;2.13;;;0.90;;
35795;SDS011;21916;52.428;13.302;2023-03-13T15:59:14;4.25;;;1.20;;
35795;SDS011;21916;52.428;13.302;2023-03-13T16:01:41;1.52;;;0.88;;
35795;SDS011;21916;52.428;13.302;2023-03-13T16:04:09;3.13;;;1.10;;
35795;SDS011;21916;52.428;13.302;2023-03-13T16:06:35;2.60;;;1.08;;
35795;SDS011;21916;52.428;13.302;2023-03-13T16:09:03;1.33;;;0.98;;
35795;SDS011;21916;52.428;13.302;2023-03-13T16:11:31;2.17;;;1.02;;
35795;SDS011;21916;52.428;13.302;2023-03-13T16:13:57;2.00;;;1.13;;
35795;SDS011;21916;52.428;13.302;2023-03-13T16:16:27;6.28;;;1.63;;
35795;SDS011;21916;52.428;13.302;2023-03-13T16:18:55;3.13;;;1.08;;
35795;SDS011;21916;52.428;13.302;2023-03-13T16:23:56;2.13;;;1.20;;
35795;SDS011;21916;52.428;13.302;2023-03-13T16:26:23;5.38;;;1.35;;
35795;SDS011;21916;52.428;13.302;2023-03-13T16:28:52;2.17;;;1.10;;
35795;SDS011;21916;52.428;13.302;2023-03-13T16:31:20;2.90;;;1.00;;
35795;SDS011;21916;52.428;13.302;2023-03-13T16:33:48;3.88;;;1.08;;
35795;SDS011;21916;52.428;13.302;2023-03-13T16:36:16;2.15;;;1.10;;
35795;SDS011;21916;52.428;13.302;2023-03-13T16:38:44;2.78;;;1.35;;
35795;SDS011;21916;52.428;13.302;2023-03-13T16:41:12;3.53;;;1.00;;
35795;SDS011;21916;52.428;13.302;2023-03-13T16:43:40;3.17;;;1.13;;
35795;SDS011;21916;52.428;13.302;2023-03-13T16:46:13;2.63;;;0.93;;